createdAt,value
2018-11-13T00:00:21.232Z,51.17
2018-11-13T00:01:26.767Z,51.37
2018-11-13T00:02:32.250Z,49.73
2018-11-13T00:03:37.709Z,51.50
2018-11-13T00:04:43.106Z,49.57
2018-11-13T00:05:48.802Z,51.63
2018-11-13T00:06:54.245Z,51.17
2018-11-13T00:07:59.768Z,50.10
2018-11-13T00:09:06.792Z,49.60
2018-11-13T00:10:12.845Z,50.43
2018-11-13T00:11:18.492Z,48.47
2018-11-13T00:12:24.013Z,51.03
2018-11-13T00:13:29.466Z,48.33
2018-11-13T00:14:34.981Z,49.13
2018-11-13T00:15:40.391Z,47.50
2018-11-13T00:16:45.967Z,50.13
2018-11-13T00:17:51.390Z,49.10
2018-11-13T00:18:56.826Z,49.93
2018-11-13T00:20:02.433Z,48.03
2018-11-13T00:21:07.893Z,51.33
2018-11-13T00:22:13.565Z,49.63
2018-11-13T00:23:18.981Z,52.10
2018-11-13T00:24:24.400Z,49.97
2018-11-13T00:25:29.911Z,49.77
2018-11-13T00:26:35.361Z,49.50
2018-11-13T00:27:41.692Z,49.30
2018-11-13T00:28:47.056Z,48.90
2018-11-13T00:29:52.541Z,46.73
2018-11-13T00:30:58.213Z,46.03
2018-11-13T00:32:03.443Z,48.10
2018-11-13T00:33:08.940Z,47.60
2018-11-13T00:34:14.374Z,48.43
2018-11-13T00:35:20.596Z,46.83
2018-11-13T00:36:26.044Z,50.70
2018-11-13T00:37:31.489Z,47.37
2018-11-13T00:38:37.141Z,47.10
2018-11-13T00:39:42.630Z,51.43
2018-11-13T00:40:48.104Z,48.40
2018-11-13T00:41:53.517Z,48.90
2018-11-13T00:42:59.089Z,48.53
2018-11-13T00:44:04.637Z,47.87
2018-11-13T00:45:10.207Z,48.90
2018-11-13T00:46:15.684Z,48.30
2018-11-13T00:47:21.093Z,49.87
2018-11-13T00:48:26.900Z,49.73
2018-11-13T00:49:32.184Z,49.03
2018-11-13T00:50:37.612Z,51.37
2018-11-13T00:51:43.059Z,47.37
2018-11-13T00:52:49.090Z,48.47
2018-11-13T00:53:54.587Z,48.30
2018-11-13T00:55:00.750Z,51.50
2018-11-13T00:56:06.822Z,48.03
2018-11-13T00:57:13.488Z,49.70
2018-11-13T00:58:18.959Z,52.07
2018-11-13T00:59:24.527Z,47.43
2018-11-13T01:00:30.142Z,46.60
2018-11-13T01:01:35.559Z,47.43
2018-11-13T01:02:41.262Z,45.33
2018-11-13T01:03:46.767Z,49.00
2018-11-13T01:04:52.287Z,46.13
2018-11-13T01:05:57.723Z,48.97
2018-11-13T01:07:03.210Z,48.13
2018-11-13T01:08:08.748Z,47.47
2018-11-13T01:09:14.201Z,47.13
2018-11-13T01:10:20.861Z,49.87
2018-11-13T01:11:26.273Z,46.33
2018-11-13T01:12:31.741Z,47.10
2018-11-13T01:13:37.232Z,47.17
2018-11-13T01:14:42.892Z,44.60
2018-11-13T01:15:48.301Z,46.40
2018-11-13T01:16:53.768Z,47.70
2018-11-13T01:17:59.226Z,47.70
2018-11-13T01:19:05.049Z,47.67
2018-11-13T01:20:10.597Z,45.70
2018-11-13T01:21:16.017Z,46.57
2018-11-13T01:22:21.536Z,49.27
2018-11-13T01:23:26.963Z,46.73
2018-11-13T01:24:32.469Z,46.33
2018-11-13T01:25:37.955Z,46.00
2018-11-13T01:26:43.357Z,51.13
2018-11-13T01:27:48.982Z,47.93
2018-11-13T01:28:54.389Z,48.03
2018-11-13T01:29:59.933Z,45.90
2018-11-13T01:31:05.381Z,50.07
2018-11-13T01:32:10.846Z,45.43
2018-11-13T01:33:16.462Z,46.57
2018-11-13T01:34:21.913Z,43.97
2018-11-13T01:35:27.370Z,43.87
2018-11-13T01:36:32.837Z,46.73
2018-11-13T01:37:38.250Z,45.40
2018-11-13T01:38:43.913Z,47.50
2018-11-13T01:39:49.423Z,48.60
2018-11-13T01:40:54.908Z,46.10
2018-11-13T01:42:00.351Z,46.20
2018-11-13T01:43:05.866Z,48.57
2018-11-13T01:44:11.325Z,47.13
2018-11-13T01:45:17.877Z,47.57
2018-11-13T01:46:23.419Z,44.93
2018-11-13T01:47:28.867Z,46.47
2018-11-13T01:48:34.320Z,45.60
2018-11-13T01:49:40.500Z,47.43
2018-11-13T01:50:45.687Z,47.20
2018-11-13T01:51:51.209Z,45.77
2018-11-13T01:52:56.605Z,44.10
2018-11-13T01:54:02.205Z,46.07
2018-11-13T01:55:10.452Z,44.53
2018-11-13T01:56:15.871Z,45.80
2018-11-13T01:57:21.346Z,47.43
2018-11-13T01:58:26.748Z,45.57
2018-11-13T01:59:32.377Z,45.77
2018-11-13T02:00:37.906Z,45.20
2018-11-13T02:01:43.350Z,47.47
2018-11-13T02:02:50.020Z,48.97
2018-11-13T02:03:55.441Z,46.60
2018-11-13T02:05:00.930Z,47.60
2018-11-13T02:06:07.406Z,49.07
2018-11-13T02:07:12.840Z,46.93
2018-11-13T02:08:18.307Z,47.00
2018-11-13T02:09:23.748Z,45.83
2018-11-13T02:10:29.233Z,48.30
2018-11-13T02:11:34.760Z,48.83
2018-11-13T02:12:40.285Z,48.30
2018-11-13T02:13:45.768Z,49.47
2018-11-13T02:14:51.384Z,48.60
2018-11-13T02:15:56.865Z,49.10
2018-11-13T02:17:02.350Z,48.97
2018-11-13T02:18:07.982Z,48.60
2018-11-13T02:19:13.429Z,50.13
2018-11-13T02:20:20.337Z,49.47
2018-11-13T02:21:25.852Z,49.17
2018-11-13T02:22:31.389Z,47.57
2018-11-13T02:23:36.835Z,49.97
2018-11-13T02:24:42.317Z,49.93
2018-11-13T02:25:47.814Z,51.07
2018-11-13T02:26:53.375Z,49.90
2018-11-13T02:27:58.925Z,47.93
2018-11-13T02:29:04.540Z,50.57
2018-11-13T02:30:13.583Z,52.10
2018-11-13T02:31:19.051Z,50.20
2018-11-13T02:32:24.487Z,47.60
2018-11-13T02:33:31.019Z,48.20
2018-11-13T02:34:36.429Z,50.10
2018-11-13T02:35:42.083Z,49.60
2018-11-13T02:36:47.572Z,51.13
2018-11-13T02:37:53.065Z,49.67
2018-11-13T02:38:58.541Z,49.20
2018-11-13T02:40:04.413Z,48.93
2018-11-13T02:41:09.861Z,49.60
2018-11-13T02:42:15.433Z,49.90
2018-11-13T02:43:20.931Z,50.40
2018-11-13T02:44:26.421Z,52.60
2018-11-13T02:45:31.876Z,47.40
2018-11-13T02:46:37.537Z,47.03
2018-11-13T02:47:43.368Z,49.70
2018-11-13T02:48:49.499Z,47.93
2018-11-13T02:49:54.946Z,51.00
2018-11-13T02:51:00.465Z,49.67
2018-11-13T02:52:05.981Z,49.40
2018-11-13T02:53:11.471Z,45.37
2018-11-13T02:54:16.936Z,49.10
2018-11-13T02:55:22.493Z,48.70
2018-11-13T02:56:28.029Z,46.80
2018-11-13T02:57:33.701Z,45.87
2018-11-13T02:58:39.157Z,46.37
2018-11-13T02:59:44.646Z,46.00
2018-11-13T03:00:50.041Z,45.33
2018-11-13T03:01:55.581Z,46.37
2018-11-13T03:03:01.013Z,45.10
2018-11-13T03:04:06.762Z,46.87
2018-11-13T03:05:14.310Z,48.03
2018-11-13T03:06:19.732Z,46.87
2018-11-13T03:07:25.271Z,46.73
2018-11-13T03:08:30.831Z,46.37
2018-11-13T03:09:36.358Z,43.30
2018-11-13T03:10:41.874Z,45.70
2018-11-13T03:11:47.361Z,44.40
2018-11-13T03:12:53.108Z,46.50
2018-11-13T03:13:58.594Z,43.73
2018-11-13T03:15:04.399Z,44.20
2018-11-13T03:16:09.865Z,41.70
2018-11-13T03:17:15.377Z,42.80
2018-11-13T03:18:20.842Z,43.60
2018-11-13T03:19:26.526Z,43.77
2018-11-13T03:20:32.077Z,40.50
2018-11-13T03:21:37.646Z,42.23
2018-11-13T03:22:43.733Z,41.27
2018-11-13T03:23:49.189Z,41.90
2018-11-13T03:24:54.701Z,40.90
2018-11-13T03:26:00.196Z,41.17
2018-11-13T03:27:05.831Z,41.07
2018-11-13T03:28:11.244Z,38.93
2018-11-13T03:29:16.674Z,39.77
2018-11-13T03:30:24.349Z,37.63
2018-11-13T03:31:30.025Z,39.63
2018-11-13T03:32:35.389Z,37.50
2018-11-13T03:33:40.833Z,38.50
2018-11-13T03:34:46.367Z,37.10
2018-11-13T03:35:51.879Z,37.57
2018-11-13T03:36:57.325Z,36.40
2018-11-13T03:38:02.785Z,36.07
2018-11-13T03:39:10.520Z,38.27
2018-11-13T03:40:16.502Z,38.87
2018-11-13T03:41:21.954Z,38.63
2018-11-13T03:42:27.419Z,39.47
2018-11-13T03:43:32.945Z,40.10
2018-11-13T03:44:38.393Z,39.00
2018-11-13T03:45:43.909Z,38.77
2018-11-13T03:46:49.435Z,37.00
2018-11-13T03:47:54.898Z,35.17
2018-11-13T03:49:00.360Z,38.77
2018-11-13T03:50:07.211Z,39.17
2018-11-13T03:51:12.703Z,35.80
2018-11-13T03:52:18.153Z,37.90
2018-11-13T03:53:23.648Z,36.43
2018-11-13T03:54:29.112Z,36.57
2018-11-13T03:55:34.636Z,37.20
2018-11-13T03:56:40.116Z,37.50
2018-11-13T03:57:46.378Z,36.10
2018-11-13T03:58:51.790Z,32.20
2018-11-13T03:59:57.418Z,37.07
2018-11-13T04:01:02.929Z,33.77
2018-11-13T04:02:08.385Z,35.47
2018-11-13T04:03:14.046Z,37.93
2018-11-13T04:04:19.541Z,34.03
2018-11-13T04:05:25.161Z,34.77
2018-11-13T04:06:30.587Z,34.10
2018-11-13T04:07:40.102Z,33.27
2018-11-13T04:08:45.553Z,33.47
2018-11-13T04:09:51.130Z,34.17
2018-11-13T04:10:56.570Z,33.03
2018-11-13T04:12:02.042Z,34.57
2018-11-13T04:13:07.685Z,32.03
2018-11-13T04:14:13.114Z,34.47
2018-11-13T04:15:21.072Z,32.37
2018-11-13T04:16:26.497Z,31.73
2018-11-13T04:17:31.941Z,32.13
2018-11-13T04:18:37.527Z,33.60
2018-11-13T04:19:43.021Z,31.33
2018-11-13T04:20:48.570Z,34.50
2018-11-13T04:21:59.193Z,32.83
2018-11-13T04:23:05.096Z,30.13
2018-11-13T04:24:10.581Z,32.57
2018-11-13T04:25:16.056Z,30.83
2018-11-13T04:26:21.568Z,31.70
2018-11-13T04:27:27.045Z,31.93
2018-11-13T04:28:32.687Z,29.27
2018-11-13T04:29:38.134Z,32.60
2018-11-13T04:30:43.730Z,31.00
2018-11-13T04:31:49.069Z,30.03
2018-11-13T04:32:54.560Z,31.40
2018-11-13T04:34:00.013Z,27.70
2018-11-13T04:35:06.873Z,30.10
2018-11-13T04:36:12.332Z,29.80
2018-11-13T04:37:17.793Z,28.60
2018-11-13T04:38:23.229Z,28.90
2018-11-13T04:39:28.754Z,26.90
2018-11-13T04:40:34.313Z,29.30
2018-11-13T04:41:39.809Z,29.43
2018-11-13T04:42:46.500Z,30.73
2018-11-13T04:43:51.983Z,30.27
2018-11-13T04:44:57.381Z,29.33
2018-11-13T04:46:02.808Z,28.90
2018-11-13T04:47:08.313Z,28.40
2018-11-13T04:48:14.005Z,28.73
2018-11-13T04:49:19.437Z,29.73
2018-11-13T04:50:24.969Z,28.00
2018-11-13T04:51:30.657Z,27.00
2018-11-13T04:52:36.134Z,28.00
2018-11-13T04:53:41.643Z,29.60
2018-11-13T04:54:47.069Z,28.80
2018-11-13T04:55:52.489Z,27.80
2018-11-13T04:56:57.977Z,27.87
2018-11-13T04:58:03.445Z,26.10
2018-11-13T04:59:09.057Z,29.13
2018-11-13T05:00:17.080Z,27.30
2018-11-13T05:01:22.501Z,27.67
2018-11-13T05:02:27.998Z,26.40
2018-11-13T05:03:33.442Z,28.20
2018-11-13T05:04:38.905Z,25.87
2018-11-13T05:05:44.373Z,24.87
2018-11-13T05:06:49.801Z,27.27
2018-11-13T05:07:56.010Z,26.40
2018-11-13T05:09:01.483Z,24.60
2018-11-13T05:10:09.809Z,23.73
2018-11-13T05:11:15.360Z,26.33
2018-11-13T05:12:20.840Z,26.07
2018-11-13T05:13:26.254Z,23.43
2018-11-13T05:14:31.660Z,25.00
2018-11-13T05:15:37.090Z,26.07
2018-11-13T05:16:42.552Z,24.67
2018-11-13T05:17:48.281Z,25.00
2018-11-13T05:18:53.729Z,24.80
2018-11-13T05:19:59.227Z,24.43
2018-11-13T05:21:04.724Z,24.60
2018-11-13T05:22:10.203Z,26.17
2018-11-13T05:23:15.858Z,25.63
2018-11-13T05:24:21.340Z,25.30
2018-11-13T05:25:26.778Z,25.80
2018-11-13T05:26:32.266Z,25.40
2018-11-13T05:27:37.786Z,24.53
2018-11-13T05:28:43.208Z,25.57
2018-11-13T05:29:48.756Z,23.80
2018-11-13T05:30:54.173Z,24.20
2018-11-13T05:31:59.702Z,23.10
2018-11-13T05:33:05.242Z,23.03
2018-11-13T05:34:10.668Z,25.73
2018-11-13T05:35:17.226Z,23.53
2018-11-13T05:36:23.344Z,23.43
2018-11-13T05:37:28.913Z,23.17
2018-11-13T05:38:34.406Z,22.73
2018-11-13T05:39:39.923Z,22.30
2018-11-13T05:40:45.409Z,23.10
2018-11-13T05:41:50.909Z,22.03
2018-11-13T05:42:56.509Z,21.93
2018-11-13T05:44:01.982Z,21.43
2018-11-13T05:45:09.523Z,21.00
2018-11-13T05:46:15.110Z,20.60
2018-11-13T05:47:20.704Z,22.13
2018-11-13T05:48:26.206Z,20.40
2018-11-13T05:49:31.677Z,20.60
2018-11-13T05:50:37.152Z,20.63
2018-11-13T05:51:42.625Z,21.73
2018-11-13T05:52:49.576Z,21.33
2018-11-13T05:53:55.116Z,20.77
2018-11-13T05:55:00.639Z,19.47
2018-11-13T05:56:06.485Z,20.13
2018-11-13T05:57:11.947Z,19.83
2018-11-13T05:58:17.418Z,17.80
2018-11-13T05:59:22.924Z,19.17
2018-11-13T06:00:31.338Z,19.03
2018-11-13T06:01:36.809Z,19.60
2018-11-13T06:02:42.261Z,17.87
2018-11-13T06:03:47.705Z,20.23
2018-11-13T06:04:53.145Z,17.97
2018-11-13T06:05:58.668Z,19.10
2018-11-13T06:07:04.387Z,20.83
2018-11-13T06:08:09.814Z,18.23
2018-11-13T06:09:15.274Z,17.37
2018-11-13T06:10:20.776Z,18.70
2018-11-13T06:11:26.258Z,17.90
2018-11-13T06:12:31.697Z,17.00
2018-11-13T06:13:37.122Z,18.87
2018-11-13T06:14:42.602Z,19.13
2018-11-13T06:15:48.094Z,17.10
2018-11-13T06:16:53.559Z,18.53
2018-11-13T06:17:59.132Z,17.43
2018-11-13T06:19:04.581Z,18.27
2018-11-13T06:20:12.156Z,17.37
2018-11-13T06:21:17.687Z,18.77
2018-11-13T06:22:23.189Z,17.37
2018-11-13T06:23:28.753Z,16.37
2018-11-13T06:24:34.335Z,17.50
2018-11-13T06:25:39.822Z,15.80
2018-11-13T06:26:45.309Z,17.20
2018-11-13T06:27:50.790Z,17.47
2018-11-13T06:28:56.298Z,15.83
2018-11-13T06:30:01.762Z,16.30
2018-11-13T06:31:07.398Z,17.43
2018-11-13T06:32:12.849Z,17.53
2018-11-13T06:33:18.342Z,16.60
2018-11-13T06:34:23.802Z,16.47
2018-11-13T06:35:29.286Z,16.17
2018-11-13T06:36:34.779Z,16.07
2018-11-13T06:37:40.576Z,17.03
2018-11-13T06:38:46.144Z,16.10
2018-11-13T06:39:51.598Z,16.90
2018-11-13T06:40:57.077Z,16.07
2018-11-13T06:42:02.592Z,17.30
2018-11-13T06:43:08.061Z,16.90
2018-11-13T06:44:13.571Z,16.87
2018-11-13T06:45:20.353Z,17.03
2018-11-13T06:46:25.931Z,17.43
2018-11-13T06:47:31.370Z,18.00
2018-11-13T06:48:36.862Z,17.43
2018-11-13T06:49:42.456Z,16.10
2018-11-13T06:50:47.933Z,15.43
2018-11-13T06:51:53.562Z,17.33
2018-11-13T06:52:59.031Z,16.50
2018-11-13T06:54:21.323Z,16.53
2018-11-13T06:55:30.058Z,16.53
2018-11-13T06:56:35.541Z,16.03
2018-11-13T06:57:41.033Z,16.33
2018-11-13T06:58:46.562Z,16.20
2018-11-13T06:59:52.034Z,16.23
2018-11-13T07:00:57.555Z,16.77
2018-11-13T07:02:03.156Z,16.80
2018-11-13T07:03:08.607Z,17.03
2018-11-13T07:04:14.145Z,16.20
2018-11-13T07:05:19.919Z,16.40
2018-11-13T07:06:25.357Z,18.73
2018-11-13T07:07:30.882Z,17.00
2018-11-13T07:08:36.285Z,17.93
2018-11-13T07:09:41.750Z,17.77
2018-11-13T07:10:47.297Z,18.17
2018-11-13T07:11:52.673Z,18.03
2018-11-13T07:12:58.661Z,17.90
2018-11-13T07:14:04.337Z,16.80
2018-11-13T07:15:12.185Z,16.47
2018-11-13T07:16:17.700Z,16.30
2018-11-13T07:17:23.186Z,17.10
2018-11-13T07:18:28.732Z,17.00
2018-11-13T07:19:34.177Z,17.93
2018-11-13T07:20:39.665Z,16.50
2018-11-13T07:21:45.098Z,16.53
2018-11-13T07:22:50.633Z,16.83
2018-11-13T07:23:56.171Z,16.37
2018-11-13T07:25:01.714Z,18.27
2018-11-13T07:26:07.484Z,16.37
2018-11-13T07:27:12.986Z,15.60
2018-11-13T07:28:18.496Z,15.37
2018-11-13T07:29:24.093Z,17.17
2018-11-13T07:30:29.626Z,18.00
2018-11-13T07:31:35.132Z,19.20
2018-11-13T07:32:40.946Z,16.73
2018-11-13T07:33:46.404Z,16.73
2018-11-13T07:34:51.888Z,16.10
2018-11-13T07:35:57.365Z,18.47
2018-11-13T07:37:02.843Z,17.40
2018-11-13T07:38:08.363Z,17.30
2018-11-13T07:39:13.813Z,18.37
2018-11-13T07:40:19.498Z,16.60
2018-11-13T07:41:24.923Z,17.70
2018-11-13T07:42:30.486Z,17.27
2018-11-13T07:43:36.294Z,18.03
2018-11-13T07:44:41.829Z,17.97
2018-11-13T07:45:47.319Z,19.20
2018-11-13T07:46:52.763Z,19.33
2018-11-13T07:47:58.364Z,17.67
2018-11-13T07:49:03.866Z,18.00
2018-11-13T07:50:11.144Z,17.67
2018-11-13T07:51:16.795Z,17.63
2018-11-13T07:52:22.236Z,19.27
2018-11-13T07:53:27.714Z,19.40
2018-11-13T07:54:35.193Z,18.43
2018-11-13T07:55:40.629Z,17.33
2018-11-13T07:56:46.146Z,18.53
2018-11-13T07:57:51.645Z,16.80
2018-11-13T07:58:57.106Z,17.10
2018-11-13T08:00:02.650Z,19.17
2018-11-13T08:01:08.345Z,17.27
2018-11-13T08:02:13.775Z,19.17
2018-11-13T08:03:29.416Z,18.07
2018-11-13T08:04:35.585Z,17.80
2018-11-13T08:05:41.095Z,17.30
2018-11-13T08:06:46.561Z,18.07
2018-11-13T08:07:52.053Z,19.97
2018-11-13T08:08:57.548Z,17.33
2018-11-13T08:10:03.131Z,19.40
2018-11-13T08:11:08.630Z,18.13
2018-11-13T08:12:14.139Z,18.47
2018-11-13T08:13:19.951Z,19.30
2018-11-13T08:14:25.261Z,17.57
2018-11-13T08:15:30.699Z,20.30
2018-11-13T08:16:36.280Z,18.73
2018-11-13T08:17:42.079Z,18.73
2018-11-13T08:18:47.639Z,18.13
2018-11-13T08:19:53.129Z,19.63
2018-11-13T08:20:58.675Z,18.83
2018-11-13T08:22:04.278Z,19.30
2018-11-13T08:23:09.662Z,17.97
2018-11-13T08:24:15.146Z,19.23
2018-11-13T08:25:20.875Z,20.60
2018-11-13T08:26:26.369Z,18.00
2018-11-13T08:27:31.862Z,19.47
2018-11-13T08:28:37.337Z,18.50
2018-11-13T08:29:42.803Z,19.77
2018-11-13T08:30:48.314Z,20.27
2018-11-13T08:31:53.763Z,20.67
2018-11-13T08:32:59.295Z,19.73
2018-11-13T08:34:05.065Z,19.80
2018-11-13T08:35:10.619Z,20.07
2018-11-13T08:36:16.209Z,19.10
2018-11-13T08:37:21.764Z,20.27
2018-11-13T08:38:27.217Z,19.03
2018-11-13T08:39:32.667Z,18.97
2018-11-13T08:40:38.186Z,16.93
2018-11-13T08:41:43.755Z,17.80
2018-11-13T08:42:49.215Z,18.40
2018-11-13T08:43:54.768Z,20.07
2018-11-13T08:45:00.264Z,19.33
2018-11-13T08:46:06.007Z,17.37
2018-11-13T08:47:11.468Z,19.10
2018-11-13T08:48:16.946Z,18.13
2018-11-13T08:49:22.584Z,17.77
2018-11-13T08:50:28.132Z,17.50
2018-11-13T08:51:33.697Z,17.87
2018-11-13T08:52:39.360Z,17.80
2018-11-13T08:53:44.859Z,17.97
2018-11-13T08:54:50.478Z,16.87
2018-11-13T08:55:55.925Z,16.17
2018-11-13T08:57:01.401Z,15.17
2018-11-13T08:58:07.110Z,16.03
2018-11-13T08:59:12.671Z,16.03
2018-11-13T09:00:19.315Z,16.93
2018-11-13T09:01:26.070Z,15.17
2018-11-13T09:02:31.774Z,15.27
2018-11-13T09:03:37.346Z,14.70
2018-11-13T09:04:42.826Z,15.67
2018-11-13T09:05:48.392Z,15.43
2018-11-13T09:06:53.862Z,15.23
2018-11-13T09:07:59.434Z,14.80
2018-11-13T09:09:07.158Z,13.33
2018-11-13T09:10:14.932Z,15.00
2018-11-13T09:11:20.652Z,13.70
2018-11-13T09:12:26.247Z,14.40
2018-11-13T09:13:31.913Z,13.63
2018-11-13T09:14:37.350Z,15.00
2018-11-13T09:15:42.949Z,14.23
2018-11-13T09:16:48.477Z,12.83
2018-11-13T09:17:53.985Z,13.60
2018-11-13T09:18:59.522Z,12.40
2018-11-13T09:20:06.399Z,14.80
2018-11-13T09:21:11.873Z,12.70
2018-11-13T09:22:17.409Z,12.60
2018-11-13T09:23:22.865Z,13.87
2018-11-13T09:24:28.369Z,12.33
2018-11-13T09:25:34.008Z,13.63
2018-11-13T09:26:39.510Z,12.40
2018-11-13T09:27:45.016Z,13.57
2018-11-13T09:28:50.449Z,12.77
2018-11-13T09:29:56.005Z,12.07
2018-11-13T09:31:01.507Z,12.30
2018-11-13T09:32:07.023Z,13.20
2018-11-13T09:33:12.463Z,12.60
2018-11-13T09:34:17.925Z,12.60
2018-11-13T09:35:23.417Z,11.87
2018-11-13T09:36:29.083Z,11.60
2018-11-13T09:37:34.664Z,12.03
2018-11-13T09:38:40.117Z,11.53
2018-11-13T09:39:45.637Z,12.30
2018-11-13T09:40:51.104Z,11.77
2018-11-13T09:41:56.697Z,10.50
2018-11-13T09:43:02.227Z,10.93
2018-11-13T09:44:07.705Z,11.50
2018-11-13T09:45:14.045Z,11.00
2018-11-13T09:46:19.545Z,10.27
2018-11-13T09:47:25.079Z,10.50
2018-11-13T09:48:30.523Z,9.10
2018-11-13T09:49:36.040Z,11.23
2018-11-13T09:50:41.576Z,10.97
2018-11-13T09:51:47.197Z,10.77
2018-11-13T09:52:53.229Z,9.43
2018-11-13T09:53:58.745Z,9.03
2018-11-13T09:55:04.637Z,8.83
2018-11-13T09:56:10.105Z,10.10
2018-11-13T09:57:15.625Z,9.27
2018-11-13T09:58:21.134Z,10.47
2018-11-13T09:59:26.578Z,9.23
2018-11-13T10:00:32.248Z,9.13
2018-11-13T10:01:37.856Z,9.10
2018-11-13T10:02:45.457Z,8.73
2018-11-13T10:03:50.803Z,8.50
2018-11-13T10:04:56.167Z,9.60
2018-11-13T10:06:01.347Z,9.30
2018-11-13T10:07:07.120Z,8.10
2018-11-13T10:08:12.716Z,8.20
2018-11-13T10:09:18.221Z,8.50
2018-11-13T10:10:24.200Z,7.80
2018-11-13T10:11:29.779Z,8.83
2018-11-13T10:12:35.285Z,8.10
2018-11-13T10:13:40.776Z,8.83
2018-11-13T10:14:46.232Z,8.17
2018-11-13T10:15:51.701Z,8.10
2018-11-13T10:16:57.315Z,8.70
2018-11-13T10:18:02.850Z,8.50
2018-11-13T10:19:09.193Z,7.83
2018-11-13T10:20:15.565Z,7.60
2018-11-13T10:21:21.066Z,7.77
2018-11-13T10:22:26.645Z,8.20
2018-11-13T10:23:32.125Z,8.03
2018-11-13T10:24:37.596Z,8.77
2018-11-13T10:25:43.058Z,7.87
2018-11-13T10:26:48.576Z,7.50
2018-11-13T10:27:54.089Z,7.90
2018-11-13T10:28:59.850Z,7.60
2018-11-13T10:30:07.893Z,6.83
2018-11-13T10:31:13.378Z,6.47
2018-11-13T10:32:18.902Z,7.00
2018-11-13T10:33:24.370Z,7.07
2018-11-13T10:34:29.826Z,6.87
2018-11-13T10:35:35.341Z,7.63
2018-11-13T10:36:40.841Z,7.00
2018-11-13T10:37:46.344Z,7.73
2018-11-13T10:38:51.830Z,7.13
2018-11-13T10:39:57.437Z,6.53
2018-11-13T10:41:02.996Z,7.17
2018-11-13T10:42:08.445Z,6.70
2018-11-13T10:43:13.978Z,7.23
2018-11-13T10:44:19.509Z,7.10
2018-11-13T10:45:26.330Z,7.13
2018-11-13T10:46:31.902Z,7.47
2018-11-13T10:47:37.405Z,9.00
2018-11-13T10:48:42.892Z,7.80
2018-11-13T10:49:48.425Z,6.97
2018-11-13T10:50:53.885Z,6.70
2018-11-13T10:51:59.337Z,6.47
2018-11-13T10:53:05.002Z,7.40
2018-11-13T10:54:10.506Z,7.30
2018-11-13T10:55:15.945Z,6.10
2018-11-13T10:56:21.473Z,6.97
2018-11-13T10:57:26.997Z,7.27
2018-11-13T10:58:32.611Z,6.87
2018-11-13T10:59:38.094Z,7.30
2018-11-13T11:00:48.744Z,6.57
2018-11-13T11:01:59.318Z,6.90
2018-11-13T11:03:06.912Z,8.07
2018-11-13T11:04:17.546Z,5.80
2018-11-13T11:05:25.417Z,7.03
2018-11-13T11:06:33.405Z,7.07
2018-11-13T11:07:38.904Z,7.30
2018-11-13T11:08:44.938Z,7.00
2018-11-13T11:09:50.473Z,6.43
2018-11-13T11:10:55.944Z,6.40
2018-11-13T11:12:01.461Z,7.03
2018-11-13T11:13:07.159Z,7.20
2018-11-13T11:14:12.524Z,7.13
2018-11-13T11:15:18.464Z,6.60
2018-11-13T11:16:23.998Z,8.00
2018-11-13T11:17:30.444Z,6.07
2018-11-13T11:18:36.133Z,5.90
2018-11-13T11:19:41.626Z,6.50
2018-11-13T11:20:47.116Z,7.10
2018-11-13T11:21:52.621Z,6.77
2018-11-13T11:22:58.106Z,6.13
2018-11-13T11:24:03.834Z,6.83
2018-11-13T11:25:11.185Z,6.90
2018-11-13T11:26:16.713Z,7.33
2018-11-13T11:27:22.130Z,6.03
2018-11-13T11:28:27.562Z,4.80
2018-11-13T11:29:33.064Z,6.00
2018-11-13T11:30:38.724Z,6.03
2018-11-13T11:31:44.628Z,5.20
2018-11-13T11:32:50.081Z,6.33
2018-11-13T11:33:55.589Z,5.53
2018-11-13T11:35:01.162Z,5.17
2018-11-13T11:36:06.867Z,5.87
2018-11-13T11:37:12.405Z,5.80
2018-11-13T11:38:17.943Z,6.80
2018-11-13T11:39:23.429Z,5.17
2018-11-13T11:40:28.928Z,5.63
2018-11-13T11:41:34.368Z,5.53
2018-11-13T11:42:39.881Z,5.03
2018-11-13T11:43:45.410Z,5.07
2018-11-13T11:44:51.118Z,4.53
2018-11-13T11:45:56.800Z,4.90
2018-11-13T11:47:02.319Z,5.77
2018-11-13T11:48:07.798Z,5.67
2018-11-13T11:49:13.285Z,5.97
2018-11-13T11:50:18.847Z,6.20
2018-11-13T11:51:24.343Z,5.63
2018-11-13T11:52:29.772Z,5.00
2018-11-13T11:53:35.298Z,5.30
2018-11-13T11:54:40.762Z,5.37
2018-11-13T11:55:46.318Z,5.00
2018-11-13T11:56:51.849Z,4.80
2018-11-13T11:57:57.295Z,5.40
2018-11-13T11:59:03.015Z,5.10
2018-11-13T12:00:17.886Z,6.27
2018-11-13T12:01:23.341Z,4.70
2018-11-13T12:02:28.868Z,5.10
2018-11-13T12:03:34.365Z,4.20
2018-11-13T12:04:39.820Z,5.20
2018-11-13T12:05:45.311Z,4.70
2018-11-13T12:06:50.777Z,5.00
2018-11-13T12:07:56.395Z,5.50
2018-11-13T12:09:01.858Z,5.27
2018-11-13T12:10:10.698Z,5.03
2018-11-13T12:11:16.153Z,5.60
2018-11-13T12:12:21.735Z,5.67
2018-11-13T12:13:27.165Z,5.30
2018-11-13T12:14:32.746Z,5.20
2018-11-13T12:15:38.170Z,4.77
2018-11-13T12:16:43.621Z,5.47
2018-11-13T12:17:49.099Z,4.80
2018-11-13T12:18:54.701Z,5.10
2018-11-13T12:20:00.312Z,5.10
2018-11-13T12:21:06.036Z,4.83
2018-11-13T12:22:11.481Z,5.40
2018-11-13T12:23:17.021Z,5.63
2018-11-13T12:24:22.437Z,4.80
2018-11-13T12:25:27.953Z,5.30
2018-11-13T12:26:33.392Z,5.73
2018-11-13T12:27:39.241Z,6.10
2018-11-13T12:28:44.734Z,4.67
2018-11-13T12:29:50.170Z,4.70
2018-11-13T12:30:55.598Z,4.70
2018-11-13T12:32:01.100Z,4.43
2018-11-13T12:33:07.322Z,4.70
2018-11-13T12:34:12.749Z,4.53
2018-11-13T12:35:19.161Z,4.00
2018-11-13T12:36:24.743Z,4.37
2018-11-13T12:37:30.181Z,3.77
2018-11-13T12:38:35.734Z,3.93
2018-11-13T12:39:41.184Z,4.00
2018-11-13T12:40:46.729Z,3.50
2018-11-13T12:41:52.229Z,3.57
2018-11-13T12:42:57.699Z,3.30
2018-11-13T12:44:03.192Z,3.60
2018-11-13T12:45:09.442Z,3.20
2018-11-13T12:46:15.243Z,3.40
2018-11-13T12:47:20.689Z,3.23
2018-11-13T12:48:26.130Z,3.17
2018-11-13T12:49:31.736Z,3.00
2018-11-13T12:50:42.326Z,3.83
2018-11-13T12:51:53.164Z,4.00
2018-11-13T12:52:58.708Z,3.67
2018-11-13T12:54:04.769Z,3.13
2018-11-13T12:55:14.717Z,3.30
2018-11-13T12:56:20.189Z,3.70
2018-11-13T12:57:25.678Z,3.33
2018-11-13T12:58:32.107Z,2.83
2018-11-13T12:59:37.760Z,3.40
2018-11-13T13:00:43.295Z,3.20
2018-11-13T13:01:48.799Z,2.90
2018-11-13T13:02:54.360Z,2.53
2018-11-13T13:03:59.818Z,2.23
2018-11-13T13:05:06.195Z,2.63
2018-11-13T13:06:11.663Z,2.70
2018-11-13T13:07:17.102Z,2.30
2018-11-13T13:08:22.530Z,2.60
2018-11-13T13:09:28.066Z,3.20
2018-11-13T13:10:33.600Z,2.90
2018-11-13T13:11:39.094Z,2.40
2018-11-13T13:12:44.606Z,2.80
2018-11-13T13:13:54.101Z,2.90
2018-11-13T13:14:59.937Z,3.13
2018-11-13T13:16:05.856Z,3.17
2018-11-13T13:17:11.285Z,2.83
2018-11-13T13:18:16.819Z,2.50
2018-11-13T13:19:22.357Z,2.60
2018-11-13T13:20:28.003Z,2.70
2018-11-13T13:21:33.525Z,2.70
2018-11-13T13:22:39.439Z,2.50
2018-11-13T13:23:44.897Z,2.70
2018-11-13T13:24:50.370Z,2.17
2018-11-13T13:25:56.019Z,2.30
2018-11-13T13:27:01.457Z,2.40
2018-11-13T13:28:07.340Z,2.40
2018-11-13T13:29:12.773Z,2.40
2018-11-13T13:30:19.598Z,2.33
2018-11-13T13:31:25.457Z,2.50
2018-11-13T13:32:30.918Z,2.63
2018-11-13T13:33:36.423Z,2.30
2018-11-13T13:34:41.881Z,3.13
2018-11-13T13:35:51.865Z,2.27
2018-11-13T13:36:57.444Z,2.97
2018-11-13T13:38:02.936Z,2.20
2018-11-13T13:39:10.039Z,2.77
2018-11-13T13:40:15.466Z,2.10
2018-11-13T13:41:20.934Z,2.70
2018-11-13T13:42:26.441Z,2.47
2018-11-13T13:43:32.509Z,2.67
2018-11-13T13:44:37.915Z,2.43
2018-11-13T13:45:44.069Z,2.70
2018-11-13T13:46:49.568Z,2.47
2018-11-13T13:47:55.212Z,2.13
2018-11-13T13:49:00.705Z,2.33
2018-11-13T13:50:06.324Z,2.20
2018-11-13T13:51:11.817Z,2.37
2018-11-13T13:52:17.246Z,2.00
2018-11-13T13:53:23.510Z,2.10
2018-11-13T13:54:29.060Z,2.70
2018-11-13T13:55:34.533Z,2.07
2018-11-13T13:56:40.261Z,1.77
2018-11-13T13:57:45.717Z,2.80
2018-11-13T13:58:51.163Z,2.67
2018-11-13T13:59:56.850Z,2.67
2018-11-13T14:01:02.453Z,2.53
2018-11-13T14:02:07.894Z,2.20
2018-11-13T14:03:14.177Z,2.23
2018-11-13T14:04:19.680Z,2.03
2018-11-13T14:05:25.156Z,2.57
2018-11-13T14:06:30.607Z,2.47
2018-11-13T14:07:36.094Z,2.43
2018-11-13T14:08:41.604Z,2.53
2018-11-13T14:09:47.121Z,2.47
2018-11-13T14:10:52.627Z,2.60
2018-11-13T14:11:58.200Z,2.23
2018-11-13T14:13:03.719Z,2.57
2018-11-13T14:14:09.189Z,2.30
2018-11-13T14:15:14.764Z,2.23